Kuujjuarapik Airport
CYGW : now visible

Airfield :











YOU CAN JOIN US ON...

 
LOGIN :

Register | Disclaimer

   EN    FR    IT 

 









Legend :    VFR   Marginal VFR   IFR   Intensive IFR   Very Intensive IFR
Visi :
Ceiling :
>= 8 km
>= 3000ft
5 to 8 km
1000 to 3000 ft
1500m to 5 km
500 to 1000 ft
800 to 1500m
200 to 500 ft
< 800m
< 200 ft
Symbols :   Thunderstorms  Fog  Heavy snow  Heavy precipitations  Wind > 20 kt






- Airport Elevation : 34 ft
- IATA code : YGW


CYGW - Kuujjuarapik

CURRENT METAR :
  • 190910Z AUTO 36006KT 2 1/4SM BR OVC002 02/02 A2966 RMK VIS VRB 1 1/2-3 SLP047

EXPIRED METARs :
  • 190821Z AUTO 36004KT 330V050 3SM BR OVC002 02/02 A2966 RMK SLP045
  • 190803Z AUTO 01004KT 330V050 3SM BR OVC002 02/02 A2966 RMK VIS VRB 1 3/4-3 SLP045
  • 190750Z AUTO 01008KT 350V050 2 1/4SM BR OVC002 02/02 A2966 RMK VIS VRB 1-3 SLP046
  • 190730Z AUTO 02008KT 4SM BR OVC002 02/02 A2966 RMK SLP046
  • 190715Z AUTO 01007KT 330V040 5SM BR OVC004 02/02 A2966 RMK SLP047
  • 190700Z AUTO 36005KT 330V050 9SM OVC004 02/02 A2966 RMK SLP046

TAF AMD TAF CYGW
Valid from the 19 at 07:00 until the 19 at 18:00 UTC


190747Z 1907/1918 36008KT 2SM BR OVC002
TEMPO 1907/1912 6SM BR OVC006
FM191200 36008G18KT P6SM SCT006
TEMPO 1912/1918 21/2SM BR BKN006 RMK FCST BASED ON AUTO OBS. NXT FCST BY 191200Z
CZUL FIR / North America



MET'MAP, your aeronautical weather chart ! - Copyright ORBIFLY December 2007 - Disclaimer

ORBIFLY MET'MAP TEAM :

Programming & Development : Alexandra Zaïnal
Concept & original design : Baudouin d'Aumeries
Assistance for programming : Marc-Olivier Méhu
Technical & hardware support : Manuel Goepfert

Contact : metmap@orbifly.com




SOURCES & CREDITS :

   NOAA       Earth
Advisory